Time;durP1;ratioP1;P1;durP2;ratioP2;P2;SDS_P1;SDS_P2;PMS_P1;PMS_P2;Temp;Humidity;BMP_temperature;BMP_pressure;BME280_temperature;BME280_humidity;BME280_pressure;Samples;Min_cycle;Max_cycle;Signal;HPM_P1;HPM_P2
2023/03/18 00:00:00;;;;;;;0.00;0.00;;;11.20;81.40;;;;;;5068740;28;20048;-69
2023/03/18 00:02:26;;;;;;;0.98;0.90;;;11.10;82.00;;;;;;5068573;28;20036;-69
2023/03/18 00:04:52;;;;;;;0.88;0.88;;;11.10;81.90;;;;;;5050260;28;20562;-69
2023/03/18 00:07:18;;;;;;;0.10;0.10;;;11.10;81.90;;;;;;5068517;28;20102;-69
2023/03/18 00:09:43;;;;;;;2.28;0.65;;;11.00;81.90;;;;;;5068085;28;20044;-69
2023/03/18 00:12:09;;;;;;;1.35;1.25;;;11.00;81.90;;;;;;5067932;28;20044;-69
2023/03/18 00:14:36;;;;;;;0.20;0.20;;;10.90;82.10;;;;;;5068611;28;20152;-69
2023/03/18 00:17:03;;;;;;;0.57;0.57;;;10.80;82.20;;;;;;5068496;28;20074;-69
2023/03/18 00:19:29;;;;;;;0.80;0.80;;;10.80;82.70;;;;;;5068807;28;20076;-69
2023/03/18 00:21:54;;;;;;;0.30;0.22;;;10.70;82.70;;;;;;5072001;28;20083;-70
2023/03/18 00:24:20;;;;;;;0.20;0.20;;;10.70;82.70;;;;;;5071440;28;20644;-69
2023/03/18 00:26:46;;;;;;;0.20;0.20;;;10.60;82.90;;;;;;5072112;28;20040;-69
2023/03/18 00:29:12;;;;;;;0.00;0.00;;;10.60;83.10;;;;;;5071559;28;20094;-69
2023/03/18 00:31:39;;;;;;;0.00;0.00;;;10.50;83.00;;;;;;5072582;28;20094;-69
2023/03/18 00:34:04;;;;;;;0.00;0.00;;;10.50;83.20;;;;;;5071943;28;20515;-69
2023/03/18 00:36:31;;;;;;;0.00;0.00;;;10.50;83.30;;;;;;5072036;28;20036;-69
2023/03/18 00:39:02;;;;;;;0.20;0.20;;;10.40;83.30;;;;;;5071148;28;20040;-69
2023/03/18 00:41:28;;;;;;;0.00;0.00;;;10.40;83.60;;;;;;5071213;28;20040;-69
2023/03/18 00:43:54;;;;;;;0.20;0.20;;;10.40;83.30;;;;;;5071705;28;20041;-69
2023/03/18 00:46:34;;;;;;;0.45;0.45;;;10.30;83.40;;;;;;5078989;28;20098;-69
2023/03/18 00:49:01;;;;;;;0.00;0.00;;;10.20;84.10;;;;;;5070428;28;20064;-69
2023/03/18 00:51:30;;;;;;;0.25;0.25;;;10.20;84.20;;;;;;5070988;28;20039;-69
2023/03/18 00:53:58;;;;;;;0.47;0.47;;;10.20;84.50;;;;;;5071453;28;20098;-69
2023/03/18 00:56:26;;;;;;;0.00;0.00;;;10.20;84.70;;;;;;5056937;28;20049;-69
2023/03/18 00:58:52;;;;;;;0.00;0.00;;;10.10;84.50;;;;;;5054282;28;20052;-69
2023/03/18 01:01:19;;;;;;;0.08;0.08;;;10.10;84.60;;;;;;5071526;28;20033;-69
2023/03/18 01:03:46;;;;;;;0.32;0.32;;;10.10;84.60;;;;;;5053432;28;20441;-69
2023/03/18 01:06:16;;;;;;;0.00;0.00;;;10.10;85.00;;;;;;5070816;28;20048;-70
2023/03/18 01:08:42;;;;;;;0.30;0.30;;;10.10;84.70;;;;;;5071004;28;20032;-69
2023/03/18 01:11:08;;;;;;;0.38;0.38;;;10.10;84.60;;;;;;5052645;28;20452;-70
2023/03/18 01:13:36;;;;;;;0.00;0.00;;;10.00;84.40;;;;;;5070406;28;20045;-69
2023/03/18 01:16:02;;;;;;;0.00;0.00;;;9.90;84.70;;;;;;5072615;28;20060;-69
2023/03/18 01:18:29;;;;;;;0.63;0.63;;;9.90;84.80;;;;;;5070478;28;20048;-69
2023/03/18 01:20:56;;;;;;;0.15;0.15;;;9.90;84.70;;;;;;5070803;28;20036;-70
2023/03/18 01:23:23;;;;;;;0.28;0.28;;;9.90;84.80;;;;;;5052568;28;20131;-69
2023/03/18 01:25:49;;;;;;;0.10;0.10;;;9.80;85.10;;;;;;5052209;28;20438;-69
2023/03/18 01:28:16;;;;;;;0.10;0.10;;;9.70;85.00;;;;;;5069889;28;20037;-69
2023/03/18 01:30:42;;;;;;;0.00;0.00;;;9.70;85.30;;;;;;5070310;28;20078;-69
2023/03/18 01:33:08;;;;;;;0.32;0.32;;;9.60;85.40;;;;;;5070785;28;20049;-69
2023/03/18 01:35:35;;;;;;;0.00;0.00;;;9.60;85.20;;;;;;5071201;28;20405;-69
2023/03/18 01:38:03;;;;;;;0.13;0.13;;;9.60;85.00;;;;;;5090505;28;20044;-69
2023/03/18 01:40:34;;;;;;;0.00;0.00;;;9.60;85.20;;;;;;5071150;28;20047;-69
2023/03/18 01:43:16;;;;;;;0.00;0.00;;;9.60;85.10;;;;;;5070737;28;20033;-69
2023/03/18 01:45:48;;;;;;;0.13;0.13;;;9.60;85.00;;;;;;5070252;28;20051;-69
2023/03/18 01:48:17;;;;;;;0.20;0.20;;;9.50;85.40;;;;;;5069953;28;20891;-69
2023/03/18 01:50:46;;;;;;;0.00;0.00;;;9.50;85.50;;;;;;5071103;28;20042;-69
2023/03/18 01:53:15;;;;;;;0.00;0.00;;;9.50;85.40;;;;;;5069374;28;20047;-69
2023/03/18 01:55:44;;;;;;;0.00;0.00;;;9.50;85.70;;;;;;5035652;28;20082;-69
2023/03/18 01:58:25;;;;;;;0.22;0.22;;;9.50;85.60;;;;;;5070104;28;20132;-70
2023/03/18 02:01:02;;;;;;;0.32;0.32;;;9.40;85.60;;;;;;5055879;28;20036;-69
2023/03/18 02:03:28;;;;;;;0.38;0.38;;;9.40;85.70;;;;;;5070070;28;20083;-70
2023/03/18 02:05:54;;;;;;;0.00;0.00;;;9.30;85.70;;;;;;5069902;28;20080;-70
2023/03/18 02:08:20;;;;;;;0.00;0.00;;;9.30;85.60;;;;;;5076275;28;20088;-69
2023/03/18 02:10:47;;;;;;;0.10;0.10;;;9.40;85.80;;;;;;5071303;28;20032;-70
2023/03/18 02:13:14;;;;;;;0.05;0.05;;;9.30;85.70;;;;;;5070707;28;20067;-69
2023/03/18 02:15:51;;;;;;;1.02;0.52;;;9.20;85.70;;;;;;5051807;28;20051;-69
2023/03/18 02:18:27;;;;;;;0.00;0.00;;;9.20;85.50;;;;;;5069510;28;20070;-69
2023/03/18 02:20:52;;;;;;;0.05;0.05;;;9.20;85.40;;;;;;5049950;28;20049;-69
2023/03/18 02:23:36;;;;;;;0.55;0.55;;;9.10;85.90;;;;;;5068919;28;20041;-69
2023/03/18 02:26:27;;;;;;;0.00;0.00;;;9.10;85.80;;;;;;5068726;28;20049;-69
2023/03/18 02:28:57;;;;;;;0.00;0.00;;;9.10;85.70;;;;;;5064795;28;20036;-69
2023/03/18 02:31:22;;;;;;;0.00;0.00;;;9.10;86.00;;;;;;5066928;28;20139;-69
2023/03/18 02:33:49;;;;;;;0.10;0.10;;;9.00;86.30;;;;;;5066907;28;20449;-69
2023/03/18 02:36:22;;;;;;;0.00;0.00;;;9.00;86.20;;;;;;5061145;28;20056;-69
2023/03/18 02:38:48;;;;;;;0.00;0.00;;;8.90;86.20;;;;;;5060558;28;20052;-69
2023/03/18 02:41:18;;;;;;;0.00;0.00;;;8.90;86.20;;;;;;5068477;28;20053;-69
2023/03/18 02:43:44;;;;;;;0.10;0.10;;;8.90;86.30;;;;;;5056583;28;20048;-70
2023/03/18 02:46:46;;;;;;;0.00;0.00;;;8.80;87.10;;;;;;5068296;28;20135;-69
2023/03/18 02:49:13;;;;;;;0.10;0.10;;;8.80;87.10;;;;;;5067200;28;20123;-70
2023/03/18 02:51:39;;;;;;;0.00;0.00;;;8.70;87.40;;;;;;5070893;28;20136;-70
2023/03/18 02:54:11;;;;;;;0.10;0.10;;;8.70;87.40;;;;;;5065457;28;20044;-70
2023/03/18 02:56:38;;;;;;;0.95;0.95;;;8.60;87.50;;;;;;5068962;28;20141;-70
2023/03/18 02:59:04;;;;;;;0.15;0.15;;;8.60;87.60;;;;;;5034508;28;20045;-70
2023/03/18 03:01:31;;;;;;;0.00;0.00;;;8.60;87.60;;;;;;5068839;28;20063;-70
2023/03/18 03:03:57;;;;;;;0.10;0.10;;;8.60;87.50;;;;;;5052500;28;20067;-70
2023/03/18 03:06:24;;;;;;;0.80;0.80;;;8.60;87.50;;;;;;5066924;28;20505;-70
2023/03/18 03:08:50;;;;;;;0.00;0.00;;;8.60;87.60;;;;;;5066586;28;20052;-70
2023/03/18 03:11:16;;;;;;;0.00;0.00;;;8.60;87.40;;;;;;5067270;28;20043;-70
2023/03/18 03:13:44;;;;;;;0.00;0.00;;;8.60;87.50;;;;;;5068891;28;20044;-70
2023/03/18 03:16:11;;;;;;;0.00;0.00;;;8.50;87.50;;;;;;5069071;28;20119;-71
2023/03/18 03:18:37;;;;;;;0.00;0.00;;;8.50;87.70;;;;;;5068816;28;20049;-70
2023/03/18 03:21:03;;;;;;;1.08;0.85;;;8.50;87.80;;;;;;5069345;28;20046;-70
2023/03/18 03:23:30;;;;;;;1.65;0.65;;;8.50;88.00;;;;;;5068722;28;20041;-71
2023/03/18 03:25:56;;;;;;;0.00;0.00;;;8.50;87.90;;;;;;5068780;28;20048;-70
2023/03/18 03:28:22;;;;;;;0.05;0.05;;;8.40;88.00;;;;;;5068445;28;20052;-70
2023/03/18 03:30:48;;;;;;;0.00;0.00;;;8.40;88.00;;;;;;5068945;28;20048;-70
2023/03/18 03:33:14;;;;;;;0.00;0.00;;;8.40;88.00;;;;;;5068688;28;20041;-70
2023/03/18 03:35:40;;;;;;;0.15;0.15;;;8.40;88.00;;;;;;5068251;28;20036;-70
2023/03/18 03:38:06;;;;;;;0.10;0.10;;;8.40;88.10;;;;;;5068442;28;20131;-70
2023/03/18 03:40:32;;;;;;;0.03;0.03;;;8.40;88.00;;;;;;5068317;28;20051;-70
2023/03/18 03:42:58;;;;;;;0.00;0.00;;;8.40;88.10;;;;;;5069073;28;20115;-70
2023/03/18 03:45:24;;;;;;;0.03;0.03;;;8.30;88.00;;;;;;5068170;28;20052;-70
2023/03/18 03:47:50;;;;;;;0.38;0.38;;;8.30;88.30;;;;;;5068608;28;20041;-70
2023/03/18 03:50:16;;;;;;;0.10;0.10;;;8.20;88.40;;;;;;5068242;28;20045;-70
2023/03/18 03:52:42;;;;;;;2.22;0.80;;;8.20;88.70;;;;;;5067881;28;20394;-70
2023/03/18 03:55:11;;;;;;;0.10;0.10;;;8.10;88.70;;;;;;5072572;28;20044;-70
2023/03/18 03:57:38;;;;;;;0.30;0.30;;;8.10;88.80;;;;;;5072271;28;20084;-70
2023/03/18 04:00:07;;;;;;;0.10;0.10;;;8.10;88.80;;;;;;5073110;28;20044;-70
2023/03/18 04:02:32;;;;;;;12.02;0.95;;;8.10;89.20;;;;;;5072394;28;20041;-70
2023/03/18 04:04:59;;;;;;;0.00;0.00;;;8.10;89.30;;;;;;5072224;28;20071;-71
2023/03/18 04:07:25;;;;;;;0.00;0.00;;;8.10;89.90;;;;;;5072287;28;20037;-70
2023/03/18 04:09:50;;;;;;;0.00;0.00;;;8.10;90.10;;;;;;5072420;28;20056;-70
2023/03/18 04:12:19;;;;;;;0.00;0.00;;;8.20;90.10;;;;;;5053959;28;20097;-70
2023/03/18 04:14:46;;;;;;;0.55;0.55;;;8.20;90.10;;;;;;5072308;28;20078;-70
2023/03/18 04:17:12;;;;;;;0.10;0.10;;;8.20;90.00;;;;;;5071891;28;20512;-70
2023/03/18 04:19:38;;;;;;;0.00;0.00;;;8.30;90.00;;;;;;5037442;28;20040;-70
2023/03/18 04:22:05;;;;;;;1.70;1.60;;;8.30;89.90;;;;;;5071553;28;20048;-70
2023/03/18 04:24:31;;;;;;;0.30;0.30;;;8.40;90.00;;;;;;5054265;28;20052;-70
2023/03/18 04:26:57;;;;;;;0.50;0.50;;;8.40;90.00;;;;;;5072136;28;20127;-70
2023/03/18 04:29:22;;;;;;;0.00;0.00;;;8.40;90.60;;;;;;5071511;28;20116;-70
2023/03/18 04:31:48;;;;;;;0.30;0.30;;;8.50;90.90;;;;;;5071933;28;20052;-70
2023/03/18 04:34:14;;;;;;;0.35;0.35;;;8.50;90.90;;;;;;5071573;28;20400;-70
2023/03/18 04:36:39;;;;;;;0.00;0.00;;;8.40;91.00;;;;;;5071813;28;20040;-70
2023/03/18 04:39:05;;;;;;;0.00;0.00;;;8.40;91.00;;;;;;5071074;28;20043;-70
2023/03/18 04:41:31;;;;;;;0.00;0.00;;;8.50;91.20;;;;;;5071717;28;20052;-70
2023/03/18 04:43:57;;;;;;;0.20;0.20;;;8.50;91.40;;;;;;5071569;28;20115;-70
2023/03/18 04:46:23;;;;;;;0.00;0.00;;;8.50;91.20;;;;;;5071295;28;20052;-70
2023/03/18 04:48:48;;;;;;;0.00;0.00;;;8.50;91.20;;;;;;5085155;28;20127;-70
2023/03/18 04:51:14;;;;;;;0.25;0.25;;;8.60;91.60;;;;;;5070932;28;20040;-70
2023/03/18 04:53:40;;;;;;;0.00;0.00;;;8.60;92.00;;;;;;5070969;28;20268;-70
2023/03/18 04:56:07;;;;;;;0.00;0.00;;;8.60;92.10;;;;;;5071125;28;20033;-71
2023/03/18 04:58:33;;;;;;;0.00;0.00;;;8.60;92.20;;;;;;5086440;28;20123;-70
2023/03/18 05:00:59;;;;;;;0.43;0.43;;;8.60;92.40;;;;;;5072768;28;20170;-70
2023/03/18 05:03:25;;;;;;;0.38;0.38;;;8.60;92.70;;;;;;5070757;28;20048;-71
2023/03/18 05:05:51;;;;;;;0.03;0.03;;;8.60;92.60;;;;;;5070194;28;20047;-70
2023/03/18 05:08:16;;;;;;;0.40;0.40;;;8.60;92.60;;;;;;5070585;28;20040;-70
2023/03/18 05:10:42;;;;;;;1.27;1.13;;;8.60;92.60;;;;;;5070911;28;20064;-71
2023/03/18 05:13:09;;;;;;;0.20;0.20;;;8.60;92.80;;;;;;5071661;28;20045;-70
2023/03/18 05:15:35;;;;;;;0.05;0.05;;;8.60;92.80;;;;;;5071061;28;20044;-70
2023/03/18 05:18:01;;;;;;;0.00;0.00;;;8.60;92.80;;;;;;5080638;28;20073;-70
2023/03/18 05:20:27;;;;;;;0.15;0.15;;;8.60;92.80;;;;;;5077777;28;20063;-70
2023/03/18 05:22:53;;;;;;;0.00;0.00;;;8.60;92.80;;;;;;5071017;28;20123;-70
2023/03/18 05:25:20;;;;;;;0.00;0.00;;;8.60;92.70;;;;;;5070757;28;20505;-71
2023/03/18 05:27:46;;;;;;;0.00;0.00;;;8.60;92.70;;;;;;5070528;28;20037;-70
2023/03/18 05:30:14;;;;;;;0.00;0.00;;;8.60;92.60;;;;;;5070092;28;20044;-71
2023/03/18 05:32:40;;;;;;;0.00;0.00;;;8.60;92.50;;;;;;5052576;28;20515;-70
2023/03/18 05:35:06;;;;;;;0.00;0.00;;;8.60;92.60;;;;;;5070875;28;20048;-71
2023/03/18 05:37:32;;;;;;;0.00;0.00;;;8.60;92.50;;;;;;5052324;28;20116;-71
2023/03/18 05:39:57;;;;;;;0.00;0.00;;;8.60;92.50;;;;;;5070964;28;20410;-70
2023/03/18 05:42:23;;;;;;;0.00;0.00;;;8.60;92.50;;;;;;5074934;28;20075;-71
2023/03/18 05:44:48;;;;;;;0.00;0.00;;;8.60;92.40;;;;;;5067066;28;20033;-71
2023/03/18 05:47:14;;;;;;;0.00;0.00;;;8.60;92.30;;;;;;5069664;28;20044;-71
2023/03/18 05:49:40;;;;;;;0.00;0.00;;;8.60;92.30;;;;;;5069674;28;20043;-70
2023/03/18 05:52:05;;;;;;;0.00;0.00;;;8.60;92.30;;;;;;5069354;28;20094;-71
2023/03/18 05:54:31;;;;;;;0.00;0.00;;;8.60;92.20;;;;;;5069892;28;20064;-71
2023/03/18 05:56:57;;;;;;;0.00;0.00;;;8.60;92.20;;;;;;5069949;28;20059;-70
2023/03/18 05:59:24;;;;;;;0.00;0.00;;;8.60;92.10;;;;;;5069066;28;20045;-71
2023/03/18 06:01:49;;;;;;;0.00;0.00;;;8.60;92.00;;;;;;5052708;28;20139;-70
2023/03/18 06:04:16;;;;;;;0.00;0.00;;;8.60;92.00;;;;;;5070059;28;20135;-71
2023/03/18 06:06:42;;;;;;;0.65;0.65;;;8.60;91.90;;;;;;5069720;28;20045;-70
2023/03/18 06:09:09;;;;;;;0.00;0.00;;;8.50;92.00;;;;;;5059799;28;20477;-70
2023/03/18 06:11:35;;;;;;;0.00;0.00;;;8.60;91.90;;;;;;5049905;28;20064;-70
2023/03/18 06:14:03;;;;;;;0.10;0.10;;;8.60;91.90;;;;;;5067798;28;20040;-70
2023/03/18 06:16:29;;;;;;;0.00;0.00;;;8.60;91.80;;;;;;5066552;28;20097;-70
2023/03/18 06:18:55;;;;;;;0.00;0.00;;;8.50;91.70;;;;;;5067317;28;20409;-70
2023/03/18 06:21:21;;;;;;;0.00;0.00;;;8.60;91.70;;;;;;5067332;28;20126;-70
2023/03/18 06:23:47;;;;;;;0.10;0.10;;;8.60;91.70;;;;;;5066680;28;20040;-70
2023/03/18 06:26:12;;;;;;;0.00;0.00;;;8.60;91.70;;;;;;5067448;28;20507;-70
2023/03/18 06:28:38;;;;;;;0.00;0.00;;;8.60;91.60;;;;;;5067255;28;20056;-70
2023/03/18 06:31:04;;;;;;;0.00;0.00;;;8.60;91.50;;;;;;5066854;28;20044;-70
2023/03/18 06:33:31;;;;;;;0.32;0.32;;;8.80;91.50;;;;;;5066743;28;20493;-70
2023/03/18 06:35:59;;;;;;;0.00;0.00;;;8.70;91.40;;;;;;5049618;28;20056;-70
2023/03/18 06:38:24;;;;;;;0.00;0.00;;;8.80;91.40;;;;;;5067212;28;20057;-70
2023/03/18 06:40:50;;;;;;;0.00;0.00;;;8.80;91.40;;;;;;5067155;28;20040;-70
2023/03/18 06:43:16;;;;;;;0.00;0.00;;;8.80;91.40;;;;;;5033018;28;20063;-70
2023/03/18 06:45:42;;;;;;;0.00;0.00;;;8.90;91.40;;;;;;5067483;28;20048;-70
2023/03/18 06:48:10;;;;;;;0.00;0.00;;;8.90;91.30;;;;;;5066133;28;20427;-70
2023/03/18 06:50:38;;;;;;;0.00;0.00;;;8.90;91.30;;;;;;5066449;28;20045;-70
2023/03/18 06:53:05;;;;;;;0.00;0.00;;;9.00;91.40;;;;;;5066507;28;20059;-70
2023/03/18 06:55:31;;;;;;;0.00;0.00;;;9.00;91.30;;;;;;5067440;28;20090;-70
2023/03/18 06:57:57;;;;;;;0.00;0.00;;;9.00;91.30;;;;;;5067098;28;20854;-70
2023/03/18 07:00:23;;;;;;;0.00;0.00;;;9.00;91.20;;;;;;5067010;28;20968;-70
2023/03/18 07:02:50;;;;;;;0.10;0.10;;;9.10;91.20;;;;;;5067077;28;20152;-70
2023/03/18 07:05:16;;;;;;;0.00;0.00;;;9.10;91.20;;;;;;5067984;28;20048;-71
2023/03/18 07:07:42;;;;;;;0.10;0.10;;;9.20;91.10;;;;;;5049861;28;20060;-71
2023/03/18 07:10:16;;;;;;;0.00;0.00;;;9.20;91.10;;;;;;5064941;28;20045;-69
2023/03/18 07:12:41;;;;;;;0.10;0.10;;;9.20;91.10;;;;;;5061770;28;20718;-69
2023/03/18 07:15:07;;;;;;;0.55;0.17;;;9.30;91.10;;;;;;5056039;28;20040;-69
2023/03/18 07:17:33;;;;;;;0.00;0.00;;;9.30;91.10;;;;;;5055325;28;20048;-70
2023/03/18 07:19:58;;;;;;;0.10;0.10;;;9.40;91.00;;;;;;5068528;28;20042;-70
2023/03/18 07:22:24;;;;;;;0.35;0.35;;;9.40;90.90;;;;;;5054107;28;20079;-70
2023/03/18 07:24:51;;;;;;;1.10;0.63;;;9.40;90.90;;;;;;5053885;28;20040;-70
2023/03/18 07:27:16;;;;;;;0.28;0.28;;;9.50;90.80;;;;;;5066074;28;20075;-70
2023/03/18 07:29:42;;;;;;;2.70;0.80;;;9.40;90.90;;;;;;5035245;28;20520;-70
2023/03/18 07:32:08;;;;;;;0.15;0.15;;;9.40;90.80;;;;;;5051315;28;20053;-71
2023/03/18 07:34:34;;;;;;;0.00;0.00;;;9.50;90.80;;;;;;5071170;28;20389;-70
2023/03/18 07:37:01;;;;;;;0.00;0.00;;;9.50;90.80;;;;;;5053338;28;20063;-70
2023/03/18 07:39:27;;;;;;;0.00;0.00;;;9.50;90.70;;;;;;5070262;28;20051;-70
2023/03/18 07:41:53;;;;;;;0.00;0.00;;;9.60;90.70;;;;;;5070829;28;20052;-70
2023/03/18 07:44:18;;;;;;;0.00;0.00;;;9.60;90.70;;;;;;5036452;28;20135;-70
2023/03/18 07:46:44;;;;;;;0.00;0.00;;;9.60;90.80;;;;;;5070698;28;20114;-70
2023/03/18 07:49:10;;;;;;;0.00;0.00;;;9.60;90.80;;;;;;5070031;28;20521;-69
2023/03/18 07:51:36;;;;;;;0.17;0.17;;;9.70;90.80;;;;;;5065597;28;20039;-67
2023/03/18 07:54:03;;;;;;;0.03;0.03;;;9.70;90.80;;;;;;5070651;28;20059;-67
2023/03/18 07:56:28;;;;;;;0.00;0.00;;;9.70;90.90;;;;;;5067425;28;20052;-67
2023/03/18 07:58:54;;;;;;;0.00;0.00;;;9.80;91.00;;;;;;5070071;28;20460;-67
2023/03/18 08:01:19;;;;;;;0.47;0.47;;;9.80;91.10;;;;;;5069545;28;20483;-67
2023/03/18 08:03:46;;;;;;;0.10;0.10;;;9.80;91.10;;;;;;5068752;28;20043;-67
2023/03/18 08:06:14;;;;;;;0.08;0.08;;;9.90;91.10;;;;;;5069512;28;20037;-67
2023/03/18 08:08:41;;;;;;;0.03;0.03;;;9.90;91.00;;;;;;5069417;28;20140;-67
2023/03/18 08:11:08;;;;;;;0.10;0.10;;;10.00;91.00;;;;;;5067491;28;20036;-66
2023/03/18 08:13:34;;;;;;;0.03;0.03;;;10.00;90.90;;;;;;5067167;28;20044;-69
2023/03/18 08:16:00;;;;;;;0.10;0.10;;;10.10;90.70;;;;;;5069159;28;20394;-67
2023/03/18 08:18:26;;;;;;;0.20;0.20;;;10.20;90.70;;;;;;5065769;28;20040;-66
2023/03/18 08:20:52;;;;;;;0.00;0.00;;;10.30;90.60;;;;;;5070033;28;20048;-66
2023/03/18 08:23:18;;;;;;;0.00;0.00;;;10.40;90.50;;;;;;5070591;28;20051;-66
2023/03/18 08:25:48;;;;;;;0.00;0.00;;;10.40;90.30;;;;;;5083520;28;20508;-66
2023/03/18 08:28:14;;;;;;;0.00;0.00;;;10.40;90.20;;;;;;5069604;28;20086;-66
2023/03/18 08:30:40;;;;;;;0.00;0.00;;;10.40;90.10;;;;;;5070665;28;20036;-66
2023/03/18 08:33:06;;;;;;;0.00;0.00;;;10.40;90.10;;;;;;5065610;28;20044;-66
2023/03/18 08:35:33;;;;;;;0.00;0.00;;;10.40;90.00;;;;;;5053155;28;20045;-66
2023/03/18 08:37:59;;;;;;;0.22;0.22;;;10.50;90.00;;;;;;5071919;28;20070;-65
2023/03/18 08:40:25;;;;;;;0.00;0.00;;;10.40;89.90;;;;;;5063892;28;20033;-66
2023/03/18 08:42:51;;;;;;;0.00;0.00;;;10.50;90.00;;;;;;5063114;28;20036;-66
2023/03/18 08:45:17;;;;;;;0.20;0.20;;;10.50;89.90;;;;;;5051671;28;20086;-67
2023/03/18 08:47:42;;;;;;;0.00;0.00;;;10.50;89.90;;;;;;5066389;28;20055;-66
2023/03/18 08:50:09;;;;;;;0.00;0.00;;;10.60;89.80;;;;;;5068685;28;20441;-66
2023/03/18 08:52:36;;;;;;;0.00;0.00;;;10.60;89.90;;;;;;5052560;28;20048;-67
2023/03/18 08:55:03;;;;;;;0.10;0.10;;;10.60;89.90;;;;;;5062712;28;20048;-66
2023/03/18 08:57:29;;;;;;;0.20;0.20;;;10.60;89.90;;;;;;5061039;28;20111;-66
2023/03/18 08:59:54;;;;;;;0.00;0.00;;;10.60;89.90;;;;;;5071405;28;20128;-65
2023/03/18 09:02:20;;;;;;;2.25;1.38;;;10.60;90.00;;;;;;5070453;28;20044;-66
2023/03/18 09:04:47;;;;;;;0.20;0.20;;;10.60;90.00;;;;;;5071002;28;20041;-66
2023/03/18 09:07:13;;;;;;;0.05;0.05;;;10.70;90.10;;;;;;5089760;28;20058;-66
2023/03/18 09:09:39;;;;;;;0.10;0.10;;;10.80;90.20;;;;;;5075347;28;20048;-65
2023/03/18 09:12:05;;;;;;;0.10;0.10;;;10.80;90.00;;;;;;5070108;28;20049;-65
2023/03/18 09:14:31;;;;;;;0.00;0.00;;;10.90;90.00;;;;;;5070612;28;20044;-65
2023/03/18 09:16:58;;;;;;;0.00;0.00;;;10.90;89.90;;;;;;5070361;28;20574;-65
2023/03/18 09:19:25;;;;;;;0.10;0.10;;;10.90;89.90;;;;;;5052576;28;20048;-65
2023/03/18 09:21:50;;;;;;;0.20;0.20;;;10.90;90.00;;;;;;5070346;28;20052;-65
2023/03/18 09:24:16;;;;;;;0.00;0.00;;;11.00;90.00;;;;;;5070016;28;20048;-66
2023/03/18 09:26:42;;;;;;;0.10;0.10;;;11.00;89.90;;;;;;5052179;28;20137;-65
2023/03/18 09:29:09;;;;;;;0.05;0.05;;;11.00;89.90;;;;;;5057725;28;20086;-66
2023/03/18 09:31:36;;;;;;;0.00;0.00;;;11.10;89.80;;;;;;5052048;28;20068;-65
2023/03/18 09:34:02;;;;;;;0.00;0.00;;;11.20;89.90;;;;;;5052197;28;20045;-65
2023/03/18 09:36:27;;;;;;;0.00;0.00;;;11.30;89.80;;;;;;5070038;28;20056;-66
2023/03/18 09:38:53;;;;;;;2.47;1.13;;;11.50;90.10;;;;;;5069725;28;20040;-66
2023/03/18 09:41:29;;;;;;;0.10;0.10;;;11.60;90.00;;;;;;5069971;28;20102;-66
2023/03/18 09:44:13;;;;;;;0.57;0.57;;;11.70;89.90;;;;;;5069431;28;20072;-66
2023/03/18 09:46:48;;;;;;;0.10;0.10;;;11.90;89.80;;;;;;5070206;28;20049;-66
2023/03/18 09:49:22;;;;;;;0.30;0.30;;;11.90;89.50;;;;;;5069256;28;20094;-66
2023/03/18 09:52:02;;;;;;;0.00;0.00;;;12.00;89.50;;;;;;5068561;28;20084;-66
2023/03/18 09:54:41;;;;;;;0.40;0.40;;;12.10;89.10;;;;;;5066117;28;20052;-67
2023/03/18 09:57:34;;;;;;;1.35;0.47;;;12.10;88.80;;;;;;5070083;28;20048;-66
2023/03/18 10:00:36;;;;;;;0.10;0.10;;;12.20;88.50;;;;;;5057358;28;20048;-66
2023/03/18 10:03:11;;;;;;;0.13;0.13;;;12.20;88.20;;;;;;5081651;28;20101;-66
2023/03/18 10:05:58;;;;;;;7.32;0.90;;;12.20;88.10;;;;;;5069673;28;20037;-67
2023/03/18 10:08:46;;;;;;;0.25;0.25;;;12.10;87.70;;;;;;5032190;28;20045;-66
2023/03/18 10:11:32;;;;;;;0.20;0.20;;;12.20;87.60;;;;;;5032647;28;20056;-68
2023/03/18 10:14:20;;;;;;;0.00;0.00;;;12.10;87.60;;;;;;5069670;28;20062;-67
2023/03/18 10:17:00;;;;;;;0.05;0.05;;;12.20;87.60;;;;;;5048474;28;20048;-68
2023/03/18 10:19:27;;;;;;;0.10;0.10;;;12.20;87.40;;;;;;5048292;28;20049;-67
2023/03/18 10:22:03;;;;;;;0.40;0.40;;;12.20;87.70;;;;;;5078129;28;20044;-67
2023/03/18 10:24:33;;;;;;;0.80;0.80;;;12.10;87.60;;;;;;5083648;28;20412;-67
2023/03/18 10:27:16;;;;;;;0.20;0.20;;;12.20;87.30;;;;;;5069812;28;20048;-67
2023/03/18 10:30:07;;;;;;;0.75;0.52;;;12.20;87.40;;;;;;5077488;28;20054;-67
2023/03/18 10:32:41;;;;;;;0.15;0.15;;;12.20;87.20;;;;;;5089626;28;20074;-68
2023/03/18 10:35:40;;;;;;;0.00;0.00;;;12.30;87.00;;;;;;5079928;28;20117;-67
2023/03/18 10:38:41;;;;;;;0.00;0.00;;;12.30;87.00;;;;;;5064612;28;20511;-67
2023/03/18 10:41:22;;;;;;;0.00;0.00;;;12.50;86.60;;;;;;5025764;28;20500;-66
2023/03/18 10:43:50;;;;;;;0.43;0.43;;;12.60;84.90;;;;;;5070726;28;20143;-66
2023/03/18 10:46:18;;;;;;;0.30;0.30;;;12.60;85.10;;;;;;5068888;28;20040;-67
2023/03/18 10:48:50;;;;;;;0.08;0.08;;;12.70;85.10;;;;;;5050591;28;20047;-66
2023/03/18 10:51:31;;;;;;;0.00;0.00;;;12.70;84.90;;;;;;5050918;28;20050;-67
2023/03/18 10:54:15;;;;;;;0.00;0.00;;;12.70;84.70;;;;;;5068093;28;20053;-67
2023/03/18 10:56:41;;;;;;;0.00;0.00;;;12.80;84.60;;;;;;5072292;28;20040;-67
2023/03/18 10:59:15;;;;;;;0.00;0.00;;;12.90;84.80;;;;;;5068405;28;20048;-66
2023/03/18 11:01:46;;;;;;;0.10;0.10;;;13.10;84.80;;;;;;5068872;28;20076;-67
2023/03/18 11:04:20;;;;;;;2.33;0.70;;;13.10;84.40;;;;;;5067729;28;20136;-67
2023/03/18 11:06:54;;;;;;;0.70;0.70;;;13.10;84.70;;;;;;5068474;28;20044;-67
2023/03/18 11:09:23;;;;;;;0.32;0.32;;;13.30;84.70;;;;;;5067413;28;20045;-67
2023/03/18 11:11:54;;;;;;;0.85;0.85;;;13.30;84.70;;;;;;5065607;28;20043;-68
2023/03/18 11:14:25;;;;;;;0.00;0.00;;;13.40;84.60;;;;;;5068921;28;20048;-67
2023/03/18 11:17:00;;;;;;;0.22;0.22;;;13.40;84.70;;;;;;5068680;28;20094;-68
2023/03/18 11:19:40;;;;;;;0.00;0.00;;;13.40;84.70;;;;;;5069129;28;20054;-68
2023/03/18 11:22:09;;;;;;;1.42;1.20;;;13.50;84.60;;;;;;5067382;28;20044;-68
2023/03/18 11:24:42;;;;;;;0.03;0.03;;;13.60;84.20;;;;;;5068459;28;20041;-68
2023/03/18 11:27:14;;;;;;;0.00;0.00;;;13.60;83.40;;;;;;5069011;28;20068;-68
2023/03/18 11:29:44;;;;;;;0.00;0.00;;;13.80;83.10;;;;;;5068537;28;20526;-67
2023/03/18 11:32:32;;;;;;;0.00;0.00;;;13.80;82.80;;;;;;5045552;28;20127;-67
2023/03/18 11:35:04;;;;;;;0.00;0.00;;;13.90;82.50;;;;;;5065676;28;20044;-67
2023/03/18 11:37:40;;;;;;;0.00;0.00;;;14.00;82.10;;;;;;5066887;28;20052;-68
2023/03/18 11:40:26;;;;;;;0.00;0.00;;;14.00;81.50;;;;;;5059984;28;20040;-67
2023/03/18 11:42:58;;;;;;;0.00;0.00;;;14.10;80.80;;;;;;5067830;28;20048;-68
2023/03/18 11:45:46;;;;;;;1.75;0.45;;;14.10;80.90;;;;;;5068462;28;20115;-67
2023/03/18 11:48:29;;;;;;;0.00;0.00;;;14.20;80.20;;;;;;5066479;28;20048;-67
2023/03/18 11:51:01;;;;;;;0.05;0.05;;;14.30;79.50;;;;;;5066679;28;20120;-67
2023/03/18 11:54:08;;;;;;;0.30;0.30;;;14.30;79.40;;;;;;5068034;28;20048;-66
2023/03/18 11:57:01;;;;;;;0.00;0.00;;;14.30;78.30;;;;;;5066107;28;20041;-67
2023/03/18 11:59:46;;;;;;;0.00;0.00;;;14.30;79.00;;;;;;5067299;28;20040;-67
2023/03/18 12:02:29;;;;;;;0.00;0.00;;;14.50;79.30;;;;;;5069737;28;20045;-67
2023/03/18 12:04:55;;;;;;;0.00;0.00;;;14.50;77.90;;;;;;5067441;28;21704;-67
2023/03/18 12:07:51;;;;;;;0.00;0.00;;;14.50;77.10;;;;;;5070853;28;20070;-67
2023/03/18 12:10:40;;;;;;;0.00;0.00;;;14.60;78.20;;;;;;5052285;28;20048;-66
2023/03/18 12:13:05;;;;;;;1.48;1.08;;;14.60;77.30;;;;;;5048281;28;20080;-66
2023/03/18 12:15:46;;;;;;;0.00;0.00;;;14.60;76.70;;;;;;5073581;28;20092;-66
2023/03/18 12:18:55;;;;;;;0.00;0.00;;;14.80;77.10;;;;;;5078377;28;20040;-67
2023/03/18 12:21:51;;;;;;;0.00;0.00;;;14.70;75.10;;;;;;5011641;28;20846;-66
2023/03/18 12:24:42;;;;;;;0.20;0.20;;;14.80;74.90;;;;;;5013886;28;20048;-67
2023/03/18 12:27:33;;;;;;;0.00;0.00;;;14.80;73.20;;;;;;5049961;28;20113;-66
2023/03/18 12:30:10;;;;;;;0.60;0.60;;;14.90;74.70;;;;;;5071631;28;20090;-66
2023/03/18 12:32:50;;;;;;;0.00;0.00;;;14.90;74.70;;;;;;5089711;28;20131;-66
2023/03/18 12:35:34;;;;;;;0.00;0.00;;;14.90;74.00;;;;;;5057292;28;20083;-66
2023/03/18 12:38:12;;;;;;;0.00;0.00;;;14.90;73.90;;;;;;5071731;28;20044;-66
2023/03/18 12:40:53;;;;;;;0.05;0.05;;;15.10;73.70;;;;;;5071537;28;20102;-66
2023/03/18 12:43:59;;;;;;;0.00;0.00;;;15.10;74.70;;;;;;5051597;28;20041;-66
2023/03/18 12:46:59;;;;;;;0.00;0.00;;;15.30;74.30;;;;;;5035668;28;20367;-66
2023/03/18 12:49:32;;;;;;;0.00;0.00;;;15.30;73.70;;;;;;5075114;28;20673;-66
2023/03/18 12:52:08;;;;;;;0.00;0.00;;;15.30;72.70;;;;;;5081946;28;20036;-66
2023/03/18 12:54:46;;;;;;;0.00;0.00;;;15.20;72.20;;;;;;5071115;28;20135;-66
2023/03/18 12:57:26;;;;;;;0.00;0.00;;;15.10;72.40;;;;;;5070575;28;20033;-66
2023/03/18 13:00:05;;;;;;;0.22;0.22;;;15.10;73.70;;;;;;5053413;28;20048;-66
2023/03/18 13:02:51;;;;;;;0.00;0.00;;;15.20;73.50;;;;;;5068812;28;20036;-66
2023/03/18 13:05:31;;;;;;;0.00;0.00;;;15.20;73.90;;;;;;5070308;28;20074;-66
2023/03/18 13:08:06;;;;;;;0.35;0.35;;;15.40;72.90;;;;;;5067572;28;20033;-66